sensor_id;sensor_type;location;lat;lon;timestamp;pressure;altitude;pressure_sealevel;temperature;humidity
71735;BME280;59577;52.122;5.406;2024-02-23T00:02:11;98722.00;;;4.64;100.00
71735;BME280;59577;52.122;5.406;2024-02-23T00:04:38;98722.41;;;4.66;100.00
71735;BME280;59577;52.122;5.406;2024-02-23T00:07:05;98728.09;;;4.61;100.00
71735;BME280;59577;52.122;5.406;2024-02-23T00:09:31;98727.31;;;4.60;100.00
71735;BME280;59577;52.122;5.406;2024-02-23T00:11:58;98732.34;;;4.65;100.00
71735;BME280;59577;52.122;5.406;2024-02-23T00:14:24;98733.13;;;4.66;100.00
71735;BME280;59577;52.122;5.406;2024-02-23T00:16:51;98740.84;;;4.71;100.00
71735;BME280;59577;52.122;5.406;2024-02-23T00:19:17;98738.53;;;4.69;100.00
71735;BME280;59577;52.122;5.406;2024-02-23T00:21:46;98742.75;;;4.70;100.00
71735;BME280;59577;52.122;5.406;2024-02-23T00:24:16;98749.63;;;4.68;100.00
71735;BME280;59577;52.122;5.406;2024-02-23T00:26:43;98749.63;;;4.68;100.00
71735;BME280;59577;52.122;5.406;2024-02-23T00:29:10;98743.81;;;4.62;100.00
71735;BME280;59577;52.122;5.406;2024-02-23T00:31:39;98748.06;;;4.67;100.00
71735;BME280;59577;52.122;5.406;2024-02-23T00:34:09;98753.84;;;4.69;100.00
71735;BME280;59577;52.122;5.406;2024-02-23T00:36:38;98753.47;;;4.70;100.00
71735;BME280;59577;52.122;5.406;2024-02-23T00:39:06;98756.97;;;4.75;100.00
71735;BME280;59577;52.122;5.406;2024-02-23T00:41:34;98767.69;;;4.75;100.00
71735;BME280;59577;52.122;5.406;2024-02-23T00:44:02;98757.81;;;4.82;100.00
71735;BME280;59577;52.122;5.406;2024-02-23T00:46:29;98766.28;;;4.84;100.00
71735;BME280;59577;52.122;5.406;2024-02-23T00:48:56;98768.53;;;4.82;100.00
71735;BME280;59577;52.122;5.406;2024-02-23T00:51:22;98777.78;;;4.85;100.00
71735;BME280;59577;52.122;5.406;2024-02-23T00:53:49;98774.69;;;4.83;100.00
71735;BME280;59577;52.122;5.406;2024-02-23T00:56:15;98777.00;;;4.84;100.00
71735;BME280;59577;52.122;5.406;2024-02-23T00:58:42;98792.75;;;4.89;100.00
71735;BME280;59577;52.122;5.406;2024-02-23T01:01:08;98778.59;;;4.89;100.00
71735;BME280;59577;52.122;5.406;2024-02-23T01:03:35;98790.88;;;4.90;100.00
71735;BME280;59577;52.122;5.406;2024-02-23T01:06:02;98792.75;;;4.89;100.00
71735;BME280;59577;52.122;5.406;2024-02-23T01:08:29;98797.97;;;4.79;100.00
71735;BME280;59577;52.122;5.406;2024-02-23T01:10:56;98811.75;;;4.77;100.00
71735;BME280;59577;52.122;5.406;2024-02-23T01:13:22;98827.00;;;4.73;100.00
71735;BME280;59577;52.122;5.406;2024-02-23T01:15:49;98835.00;;;4.69;100.00
71735;BME280;59577;52.122;5.406;2024-02-23T01:18:15;98824.25;;;4.66;100.00
71735;BME280;59577;52.122;5.406;2024-02-23T01:20:42;98835.78;;;4.70;100.00
71735;BME280;59577;52.122;5.406;2024-02-23T01:23:09;98837.22;;;4.64;100.00
71735;BME280;59577;52.122;5.406;2024-02-23T01:25:36;98832.13;;;4.55;100.00
71735;BME280;59577;52.122;5.406;2024-02-23T01:28:04;98826.59;;;4.44;100.00
71735;BME280;59577;52.122;5.406;2024-02-23T01:30:30;98825.88;;;4.47;100.00
71735;BME280;59577;52.122;5.406;2024-02-23T01:32:57;98859.22;;;4.50;100.00
71735;BME280;59577;52.122;5.406;2024-02-23T01:35:23;98853.91;;;4.54;100.00
71735;BME280;59577;52.122;5.406;2024-02-23T01:37:50;98872.22;;;4.51;100.00
71735;BME280;59577;52.122;5.406;2024-02-23T01:40:17;98853.88;;;4.50;100.00
71735;BME280;59577;52.122;5.406;2024-02-23T01:42:43;98855.22;;;4.40;100.00
71735;BME280;59577;52.122;5.406;2024-02-23T01:45:10;98845.22;;;4.37;100.00
71735;BME280;59577;52.122;5.406;2024-02-23T01:47:36;98856.31;;;4.36;100.00
71735;BME280;59577;52.122;5.406;2024-02-23T01:50:05;98865.78;;;4.29;100.00
71735;BME280;59577;52.122;5.406;2024-02-23T01:52:34;98880.63;;;4.27;100.00
71735;BME280;59577;52.122;5.406;2024-02-23T01:55:01;98885.69;;;4.32;100.00
71735;BME280;59577;52.122;5.406;2024-02-23T01:57:29;98884.22;;;4.35;100.00
71735;BME280;59577;52.122;5.406;2024-02-23T02:00:16;98888.50;;;4.39;100.00
71735;BME280;59577;52.122;5.406;2024-02-23T02:02:44;98886.59;;;4.40;100.00
71735;BME280;59577;52.122;5.406;2024-02-23T02:05:11;98890.06;;;4.40;100.00
71735;BME280;59577;52.122;5.406;2024-02-23T02:07:39;98884.28;;;4.38;100.00
71735;BME280;59577;52.122;5.406;2024-02-23T02:10:08;98895.41;;;4.40;100.00
71735;BME280;59577;52.122;5.406;2024-02-23T02:12:35;98901.88;;;4.39;100.00
71735;BME280;59577;52.122;5.406;2024-02-23T02:15:03;98896.47;;;4.36;100.00
71735;BME280;59577;52.122;5.406;2024-02-23T02:17:30;98897.28;;;4.36;100.00
71735;BME280;59577;52.122;5.406;2024-02-23T02:20:02;98898.38;;;4.35;100.00
71735;BME280;59577;52.122;5.406;2024-02-23T02:22:33;98894.88;;;4.31;100.00
71735;BME280;59577;52.122;5.406;2024-02-23T02:25:00;98903.28;;;4.29;100.00
71735;BME280;59577;52.122;5.406;2024-02-23T02:27:26;98907.41;;;4.27;100.00
71735;BME280;59577;52.122;5.406;2024-02-23T02:29:53;98898.97;;;4.25;100.00
71735;BME280;59577;52.122;5.406;2024-02-23T02:32:19;98898.84;;;4.18;100.00
71735;BME280;59577;52.122;5.406;2024-02-23T02:34:46;98905.38;;;4.20;100.00
71735;BME280;59577;52.122;5.406;2024-02-23T02:37:13;98896.59;;;4.20;100.00
71735;BME280;59577;52.122;5.406;2024-02-23T02:39:39;98909.56;;;4.18;100.00
71735;BME280;59577;52.122;5.406;2024-02-23T02:42:06;98903.28;;;4.10;100.00
71735;BME280;59577;52.122;5.406;2024-02-23T02:44:33;98895.66;;;4.08;100.00
71735;BME280;59577;52.122;5.406;2024-02-23T02:47:00;98900.22;;;4.08;100.00
71735;BME280;59577;52.122;5.406;2024-02-23T02:49:27;98905.22;;;4.09;100.00
71735;BME280;59577;52.122;5.406;2024-02-23T02:51:53;98908.28;;;4.11;100.00
71735;BME280;59577;52.122;5.406;2024-02-23T02:54:20;98914.38;;;4.08;100.00
71735;BME280;59577;52.122;5.406;2024-02-23T02:56:47;98918.59;;;4.09;100.00
71735;BME280;59577;52.122;5.406;2024-02-23T02:59:14;98915.56;;;4.11;100.00
71735;BME280;59577;52.122;5.406;2024-02-23T03:01:41;98915.91;;;4.09;100.00
71735;BME280;59577;52.122;5.406;2024-02-23T03:04:08;98920.44;;;4.05;100.00
71735;BME280;59577;52.122;5.406;2024-02-23T03:06:35;98921.56;;;4.04;100.00
71735;BME280;59577;52.122;5.406;2024-02-23T03:09:01;98924.25;;;4.04;100.00
71735;BME280;59577;52.122;5.406;2024-02-23T03:11:29;98922.25;;;4.01;100.00
71735;BME280;59577;52.122;5.406;2024-02-23T03:13:55;98933.75;;;4.02;100.00
71735;BME280;59577;52.122;5.406;2024-02-23T03:16:22;98938.69;;;4.00;100.00
71735;BME280;59577;52.122;5.406;2024-02-23T03:18:57;98936.00;;;4.00;100.00
71735;BME280;59577;52.122;5.406;2024-02-23T03:21:23;98936.00;;;4.00;100.00
71735;BME280;59577;52.122;5.406;2024-02-23T03:23:50;98947.03;;;3.94;100.00
71735;BME280;59577;52.122;5.406;2024-02-23T03:26:16;98927.84;;;3.92;100.00
71735;BME280;59577;52.122;5.406;2024-02-23T03:28:43;98940.03;;;3.90;100.00
71735;BME280;59577;52.122;5.406;2024-02-23T03:31:10;98941.16;;;3.89;100.00
71735;BME280;59577;52.122;5.406;2024-02-23T03:33:37;98946.84;;;3.87;100.00
71735;BME280;59577;52.122;5.406;2024-02-23T03:36:04;98944.97;;;3.88;100.00
71735;BME280;59577;52.122;5.406;2024-02-23T03:38:30;98952.56;;;3.86;100.00
71735;BME280;59577;52.122;5.406;2024-02-23T03:40:58;98949.81;;;3.82;100.00
71735;BME280;59577;52.122;5.406;2024-02-23T03:43:25;98958.19;;;3.81;100.00
71735;BME280;59577;52.122;5.406;2024-02-23T03:45:51;98961.19;;;3.75;100.00
71735;BME280;59577;52.122;5.406;2024-02-23T03:48:18;98959.25;;;3.76;100.00
71735;BME280;59577;52.122;5.406;2024-02-23T03:50:45;98967.72;;;3.78;100.00
71735;BME280;59577;52.122;5.406;2024-02-23T03:53:12;98960.88;;;3.81;100.00
71735;BME280;59577;52.122;5.406;2024-02-23T03:55:39;98965.88;;;3.82;100.00
71735;BME280;59577;52.122;5.406;2024-02-23T03:58:05;98970.47;;;3.82;100.00
71735;BME280;59577;52.122;5.406;2024-02-23T04:00:32;98969.28;;;3.79;100.00
71735;BME280;59577;52.122;5.406;2024-02-23T04:02:59;98969.97;;;3.76;100.00
71735;BME280;59577;52.122;5.406;2024-02-23T04:05:25;98965.72;;;3.75;100.00
71735;BME280;59577;52.122;5.406;2024-02-23T04:07:52;98972.22;;;3.74;100.00
71735;BME280;59577;52.122;5.406;2024-02-23T04:10:18;98970.94;;;3.68;100.00
71735;BME280;59577;52.122;5.406;2024-02-23T04:12:46;98967.09;;;3.65;100.00
71735;BME280;59577;52.122;5.406;2024-02-23T04:15:13;98984.59;;;3.63;100.00
71735;BME280;59577;52.122;5.406;2024-02-23T04:17:40;98983.41;;;3.60;100.00
71735;BME280;59577;52.122;5.406;2024-02-23T04:20:08;98976.50;;;3.59;100.00
71735;BME280;59577;52.122;5.406;2024-02-23T04:22:36;98983.41;;;3.60;100.00
71735;BME280;59577;52.122;5.406;2024-02-23T04:25:03;98982.19;;;3.57;100.00
71735;BME280;59577;52.122;5.406;2024-02-23T04:27:31;98983.22;;;3.53;100.00
71735;BME280;59577;52.122;5.406;2024-02-23T04:29:58;98991.25;;;3.53;100.00
71735;BME280;59577;52.122;5.406;2024-02-23T04:32:24;98985.13;;;3.52;100.00
71735;BME280;59577;52.122;5.406;2024-02-23T04:34:51;98984.38;;;3.52;100.00
71735;BME280;59577;52.122;5.406;2024-02-23T04:37:17;98993.50;;;3.51;100.00
71735;BME280;59577;52.122;5.406;2024-02-23T04:39:44;98988.50;;;3.49;100.00
71735;BME280;59577;52.122;5.406;2024-02-23T04:42:11;98988.84;;;3.48;100.00
71735;BME280;59577;52.122;5.406;2024-02-23T04:44:37;98995.00;;;3.48;100.00
71735;BME280;59577;52.122;5.406;2024-02-23T04:47:04;99009.81;;;3.46;100.00
71735;BME280;59577;52.122;5.406;2024-02-23T04:49:31;99004.81;;;3.44;100.00
71735;BME280;59577;52.122;5.406;2024-02-23T04:51:57;99008.38;;;3.48;100.00
71735;BME280;59577;52.122;5.406;2024-02-23T04:54:24;99006.53;;;3.52;100.00
71735;BME280;59577;52.122;5.406;2024-02-23T04:56:50;99000.00;;;3.50;100.00
71735;BME280;59577;52.122;5.406;2024-02-23T04:59:17;99005.44;;;3.53;100.00
71735;BME280;59577;52.122;5.406;2024-02-23T05:01:44;99018.53;;;3.58;100.00
71735;BME280;59577;52.122;5.406;2024-02-23T05:04:10;99009.03;;;3.61;100.00
71735;BME280;59577;52.122;5.406;2024-02-23T05:06:36;99017.13;;;3.65;100.00
71735;BME280;59577;52.122;5.406;2024-02-23T05:09:03;99014.44;;;3.65;100.00
71735;BME280;59577;52.122;5.406;2024-02-23T05:11:30;99019.44;;;3.66;100.00
71735;BME280;59577;52.122;5.406;2024-02-23T05:13:56;99013.75;;;3.68;100.00
71735;BME280;59577;52.122;5.406;2024-02-23T05:16:23;99011.06;;;3.68;100.00
71735;BME280;59577;52.122;5.406;2024-02-23T05:18:49;99010.38;;;3.71;100.00
71735;BME280;59577;52.122;5.406;2024-02-23T05:21:16;99012.72;;;3.72;100.00
71735;BME280;59577;52.122;5.406;2024-02-23T05:23:43;99011.22;;;3.75;100.00
71735;BME280;59577;52.122;5.406;2024-02-23T05:26:12;99007.09;;;3.78;100.00
71735;BME280;59577;52.122;5.406;2024-02-23T05:28:39;99008.28;;;3.80;100.00
71735;BME280;59577;52.122;5.406;2024-02-23T05:31:05;99006.81;;;3.83;100.00
71735;BME280;59577;52.122;5.406;2024-02-23T05:33:32;99002.22;;;3.83;100.00
71735;BME280;59577;52.122;5.406;2024-02-23T05:35:58;99011.00;;;3.84;100.00
71735;BME280;59577;52.122;5.406;2024-02-23T05:38:25;99016.78;;;3.86;100.00
71735;BME280;59577;52.122;5.406;2024-02-23T05:40:52;99012.66;;;3.88;100.00
71735;BME280;59577;52.122;5.406;2024-02-23T05:43:18;99004.97;;;3.87;100.00
71735;BME280;59577;52.122;5.406;2024-02-23T05:45:45;99009.28;;;3.91;100.00
71735;BME280;59577;52.122;5.406;2024-02-23T05:48:11;99004.28;;;3.90;100.00
71735;BME280;59577;52.122;5.406;2024-02-23T05:50:38;99015.75;;;3.90;100.00
71735;BME280;59577;52.122;5.406;2024-02-23T05:53:05;99009.63;;;3.90;100.00
71735;BME280;59577;52.122;5.406;2024-02-23T05:55:32;99010.38;;;3.90;100.00
71735;BME280;59577;52.122;5.406;2024-02-23T05:57:58;99007.38;;;3.92;100.00
71735;BME280;59577;52.122;5.406;2024-02-23T06:00:25;99003.22;;;3.94;100.00
71735;BME280;59577;52.122;5.406;2024-02-23T06:02:51;99009.00;;;3.97;100.00
71735;BME280;59577;52.122;5.406;2024-02-23T06:05:18;99009.06;;;4.00;100.00
71735;BME280;59577;52.122;5.406;2024-02-23T06:07:44;99009.47;;;4.02;100.00
71735;BME280;59577;52.122;5.406;2024-02-23T06:10:11;99005.31;;;4.05;100.00
71735;BME280;59577;52.122;5.406;2024-02-23T06:12:37;99013.34;;;4.05;100.00
71735;BME280;59577;52.122;5.406;2024-02-23T06:15:05;99010.75;;;4.08;100.00
71735;BME280;59577;52.122;5.406;2024-02-23T06:17:32;99013.06;;;4.10;100.00
71735;BME280;59577;52.122;5.406;2024-02-23T06:19:59;99013.50;;;4.12;100.00
71735;BME280;59577;52.122;5.406;2024-02-23T06:22:26;99011.94;;;4.11;100.00
71735;BME280;59577;52.122;5.406;2024-02-23T06:24:52;99013.13;;;4.13;100.00
71735;BME280;59577;52.122;5.406;2024-02-23T06:27:19;99012.78;;;4.15;100.00
71735;BME280;59577;52.122;5.406;2024-02-23T06:29:45;99017.03;;;4.16;100.00
71735;BME280;59577;52.122;5.406;2024-02-23T06:32:12;99026.69;;;4.21;100.00
71735;BME280;59577;52.122;5.406;2024-02-23T06:34:38;99024.06;;;4.24;100.00
71735;BME280;59577;52.122;5.406;2024-02-23T06:37:05;99019.13;;;4.26;100.00
71735;BME280;59577;52.122;5.406;2024-02-23T06:39:31;99042.53;;;4.29;100.00
71735;BME280;59577;52.122;5.406;2024-02-23T06:41:58;99024.56;;;4.30;100.00
71735;BME280;59577;52.122;5.406;2024-02-23T06:44:26;99024.63;;;4.33;100.00
71735;BME280;59577;52.122;5.406;2024-02-23T06:46:53;99034.63;;;4.37;100.00
71735;BME280;59577;52.122;5.406;2024-02-23T06:49:20;99029.28;;;4.37;100.00
71735;BME280;59577;52.122;5.406;2024-02-23T06:51:46;99026.66;;;4.40;100.00
71735;BME280;59577;52.122;5.406;2024-02-23T06:54:13;99037.78;;;4.42;100.00
71735;BME280;59577;52.122;5.406;2024-02-23T06:56:39;99029.06;;;4.45;100.00
71735;BME280;59577;52.122;5.406;2024-02-23T06:59:06;99026.03;;;4.47;100.00
71735;BME280;59577;52.122;5.406;2024-02-23T07:01:32;99024.88;;;4.48;100.00
71735;BME280;59577;52.122;5.406;2024-02-23T07:04:06;99020.72;;;4.50;100.00
71735;BME280;59577;52.122;5.406;2024-02-23T07:06:32;99031.84;;;4.52;100.00
71735;BME280;59577;52.122;5.406;2024-02-23T07:09:00;99036.94;;;4.58;100.00
71735;BME280;59577;52.122;5.406;2024-02-23T07:11:27;99025.44;;;4.57;100.00
71735;BME280;59577;52.122;5.406;2024-02-23T07:13:53;99028.13;;;4.57;100.00
71735;BME280;59577;52.122;5.406;2024-02-23T07:16:20;99031.97;;;4.60;100.00
71735;BME280;59577;52.122;5.406;2024-02-23T07:18:46;99028.94;;;4.61;100.00
71735;BME280;59577;52.122;5.406;2024-02-23T07:21:13;99038.91;;;4.61;100.00
71735;BME280;59577;52.122;5.406;2024-02-23T07:23:40;99024.41;;;4.65;100.00
71735;BME280;59577;52.122;5.406;2024-02-23T07:26:06;99033.31;;;4.69;100.00
71735;BME280;59577;52.122;5.406;2024-02-23T07:28:33;99025.34;;;4.73;100.00
71735;BME280;59577;52.122;5.406;2024-02-23T07:31:00;99031.16;;;4.79;100.00
71735;BME280;59577;52.122;5.406;2024-02-23T07:33:26;99030.03;;;4.80;100.00
71735;BME280;59577;52.122;5.406;2024-02-23T07:35:53;99028.91;;;4.81;100.00
71735;BME280;59577;52.122;5.406;2024-02-23T07:38:19;99026.66;;;4.83;100.00
71735;BME280;59577;52.122;5.406;2024-02-23T07:40:46;99019.78;;;4.85;100.00
71735;BME280;59577;52.122;5.406;2024-02-23T07:43:13;99015.34;;;4.93;100.00
71735;BME280;59577;52.122;5.406;2024-02-23T07:45:39;99014.59;;;4.96;100.00
71735;BME280;59577;52.122;5.406;2024-02-23T07:48:06;99006.31;;;5.05;100.00
71735;BME280;59577;52.122;5.406;2024-02-23T07:50:33;99006.84;;;5.14;100.00
71735;BME280;59577;52.122;5.406;2024-02-23T07:52:59;99008.94;;;5.24;100.00
71735;BME280;59577;52.122;5.406;2024-02-23T07:55:26;98994.00;;;5.27;100.00
71735;BME280;59577;52.122;5.406;2024-02-23T07:57:52;98994.00;;;5.27;100.00
71735;BME280;59577;52.122;5.406;2024-02-23T08:00:23;98995.16;;;5.26;100.00
71735;BME280;59577;52.122;5.406;2024-02-23T08:02:53;98998.91;;;5.21;100.00
71735;BME280;59577;52.122;5.406;2024-02-23T08:05:23;98984.75;;;5.21;100.00
71735;BME280;59577;52.122;5.406;2024-02-23T08:07:50;98992.78;;;5.21;100.00
71735;BME280;59577;52.122;5.406;2024-02-23T08:10:17;98992.41;;;5.22;100.00
71735;BME280;59577;52.122;5.406;2024-02-23T08:12:43;98987.03;;;5.22;100.00
71735;BME280;59577;52.122;5.406;2024-02-23T08:15:10;98982.09;;;5.24;100.00
71735;BME280;59577;52.122;5.406;2024-02-23T08:17:37;98989.47;;;5.31;100.00
71735;BME280;59577;52.122;5.406;2024-02-23T08:20:04;98982.25;;;5.35;100.00
71735;BME280;59577;52.122;5.406;2024-02-23T08:22:32;98986.53;;;5.40;100.00
71735;BME280;59577;52.122;5.406;2024-02-23T08:24:58;98976.94;;;5.39;100.00
71735;BME280;59577;52.122;5.406;2024-02-23T08:27:25;98981.91;;;5.37;100.00
71735;BME280;59577;52.122;5.406;2024-02-23T08:29:51;98992.97;;;5.35;100.00
71735;BME280;59577;52.122;5.406;2024-02-23T08:32:18;98984.53;;;5.33;100.00
71735;BME280;59577;52.122;5.406;2024-02-23T08:34:45;98968.44;;;5.33;100.00
71735;BME280;59577;52.122;5.406;2024-02-23T08:37:12;98981.50;;;5.35;100.00
71735;BME280;59577;52.122;5.406;2024-02-23T08:39:38;98986.41;;;5.33;100.00
71735;BME280;59577;52.122;5.406;2024-02-23T08:42:05;98977.59;;;5.32;100.00
71735;BME280;59577;52.122;5.406;2024-02-23T08:44:32;98970.31;;;5.33;100.00
71735;BME280;59577;52.122;5.406;2024-02-23T08:46:58;98965.75;;;5.33;100.00
71735;BME280;59577;52.122;5.406;2024-02-23T08:49:25;98965.75;;;5.33;100.00
71735;BME280;59577;52.122;5.406;2024-02-23T08:51:51;98964.59;;;5.34;100.00
71735;BME280;59577;52.122;5.406;2024-02-23T08:54:18;98970.69;;;5.31;100.00
71735;BME280;59577;52.122;5.406;2024-02-23T08:56:44;98975.13;;;5.20;100.00
71735;BME280;59577;52.122;5.406;2024-02-23T08:59:11;98972.72;;;5.11;100.00
71735;BME280;59577;52.122;5.406;2024-02-23T09:01:37;98972.66;;;5.07;100.00
71735;BME280;59577;52.122;5.406;2024-02-23T09:04:04;98973.00;;;5.06;100.00
71735;BME280;59577;52.122;5.406;2024-02-23T09:06:30;98976.81;;;5.05;100.00
71735;BME280;59577;52.122;5.406;2024-02-23T09:09:04;98983.78;;;5.09;100.00
71735;BME280;59577;52.122;5.406;2024-02-23T09:11:31;98985.41;;;5.14;100.00
71735;BME280;59577;52.122;5.406;2024-02-23T09:13:57;98987.34;;;5.17;100.00
71735;BME280;59577;52.122;5.406;2024-02-23T09:16:24;98989.25;;;5.17;100.00
71735;BME280;59577;52.122;5.406;2024-02-23T09:18:51;98995.78;;;5.16;100.00
71735;BME280;59577;52.122;5.406;2024-02-23T09:21:17;98994.97;;;5.15;100.00
71735;BME280;59577;52.122;5.406;2024-02-23T09:23:45;98988.53;;;5.20;100.00
71735;BME280;59577;52.122;5.406;2024-02-23T09:26:12;99003.91;;;5.23;100.00
71735;BME280;59577;52.122;5.406;2024-02-23T09:28:38;98993.59;;;5.25;100.00
71735;BME280;59577;52.122;5.406;2024-02-23T09:31:08;98995.25;;;5.33;100.00
71735;BME280;59577;52.122;5.406;2024-02-23T09:33:34;98993.38;;;5.37;100.00
71735;BME280;59577;52.122;5.406;2024-02-23T09:36:01;98995.72;;;5.39;100.00
71735;BME280;59577;52.122;5.406;2024-02-23T09:38:28;98995.72;;;5.39;100.00
71735;BME280;59577;52.122;5.406;2024-02-23T09:40:54;98985.75;;;5.39;100.00
71735;BME280;59577;52.122;5.406;2024-02-23T09:43:21;98993.44;;;5.41;100.00
71735;BME280;59577;52.122;5.406;2024-02-23T09:45:51;99006.09;;;5.40;100.00
71735;BME280;59577;52.122;5.406;2024-02-23T09:48:21;99005.31;;;5.40;100.00
71735;BME280;59577;52.122;5.406;2024-02-23T09:50:49;99003.81;;;5.42;100.00
71735;BME280;59577;52.122;5.406;2024-02-23T09:53:16;99008.41;;;5.42;100.00
71735;BME280;59577;52.122;5.406;2024-02-23T09:55:44;99033.69;;;5.41;100.00
71735;BME280;59577;52.122;5.406;2024-02-23T09:58:12;99029.88;;;5.42;100.00
71735;BME280;59577;52.122;5.406;2024-02-23T10:00:40;99029.13;;;5.45;100.00
71735;BME280;59577;52.122;5.406;2024-02-23T10:03:07;99029.25;;;5.52;100.00
71735;BME280;59577;52.122;5.406;2024-02-23T10:05:34;99025.22;;;5.65;100.00
71735;BME280;59577;52.122;5.406;2024-02-23T10:08:05;99019.06;;;5.92;100.00
71735;BME280;59577;52.122;5.406;2024-02-23T10:10:33;99012.72;;;6.07;100.00
71735;BME280;59577;52.122;5.406;2024-02-23T10:13:00;99020.97;;;6.21;100.00
71735;BME280;59577;52.122;5.406;2024-02-23T10:15:30;99019.41;;;6.20;100.00
71735;BME280;59577;52.122;5.406;2024-02-23T10:17:59;99025.50;;;6.17;100.00
71735;BME280;59577;52.122;5.406;2024-02-23T10:20:26;99035.13;;;6.18;100.00
71735;BME280;59577;52.122;5.406;2024-02-23T10:22:54;99035.16;;;6.22;100.00
71735;BME280;59577;52.122;5.406;2024-02-23T10:25:21;99028.97;;;6.18;100.00
71735;BME280;59577;52.122;5.406;2024-02-23T10:27:48;99042.81;;;6.20;100.00
71735;BME280;59577;52.122;5.406;2024-02-23T10:30:14;99038.56;;;6.19;100.00
71735;BME280;59577;52.122;5.406;2024-02-23T10:32:41;99038.84;;;6.10;100.00
71735;BME280;59577;52.122;5.406;2024-02-23T10:35:15;99044.19;;;6.07;100.00
71735;BME280;59577;52.122;5.406;2024-02-23T10:37:43;99039.16;;;6.05;100.00
71735;BME280;59577;52.122;5.406;2024-02-23T10:40:16;99052.19;;;6.03;100.00
71735;BME280;59577;52.122;5.406;2024-02-23T10:42:47;99051.78;;;6.01;100.00
71735;BME280;59577;52.122;5.406;2024-02-23T10:45:18;99065.22;;;6.01;100.00
71735;BME280;59577;52.122;5.406;2024-02-23T10:47:46;99052.81;;;5.93;100.00
71735;BME280;59577;52.122;5.406;2024-02-23T10:50:14;99065.81;;;5.91;100.00
71735;BME280;59577;52.122;5.406;2024-02-23T10:52:42;99068.16;;;5.92;100.00
71735;BME280;59577;52.122;5.406;2024-02-23T10:55:09;99078.13;;;5.92;100.00
71735;BME280;59577;52.122;5.406;2024-02-23T10:57:36;99065.97;;;6.01;100.00
71735;BME280;59577;52.122;5.406;2024-02-23T11:00:04;99079.53;;;6.12;100.00
71735;BME280;59577;52.122;5.406;2024-02-23T11:02:39;99074.22;;;6.16;100.00
71735;BME280;59577;52.122;5.406;2024-02-23T11:05:06;99078.31;;;6.36;100.00
71735;BME280;59577;52.122;5.406;2024-02-23T11:07:38;99077.38;;;6.55;100.00
71735;BME280;59577;52.122;5.406;2024-02-23T11:10:06;99089.34;;;6.62;100.00
71735;BME280;59577;52.122;5.406;2024-02-23T11:12:33;99092.16;;;6.72;100.00
71735;BME280;59577;52.122;5.406;2024-02-23T11:15:01;99081.50;;;6.83;100.00
71735;BME280;59577;52.122;5.406;2024-02-23T11:17:29;99076.97;;;6.91;100.00
71735;BME280;59577;52.122;5.406;2024-02-23T11:19:57;99083.19;;;6.99;100.00
71735;BME280;59577;52.122;5.406;2024-02-23T11:22:31;99081.09;;;7.22;100.00
71735;BME280;59577;52.122;5.406;2024-02-23T11:25:08;99072.06;;;7.48;100.00
71735;BME280;59577;52.122;5.406;2024-02-23T11:27:37;99083.38;;;7.72;100.00
71735;BME280;59577;52.122;5.406;2024-02-23T11:30:05;99074.50;;;7.71;100.00
71735;BME280;59577;52.122;5.406;2024-02-23T11:32:39;99069.09;;;7.68;100.00
71735;BME280;59577;52.122;5.406;2024-02-23T11:35:08;99074.84;;;7.66;100.00
71735;BME280;59577;52.122;5.406;2024-02-23T11:37:52;99070.84;;;8.05;100.00
71735;BME280;59577;52.122;5.406;2024-02-23T11:40:28;99084.00;;;8.14;100.00
71735;BME280;59577;52.122;5.406;2024-02-23T11:42:56;99068.56;;;8.10;100.00
71735;BME280;59577;52.122;5.406;2024-02-23T11:45:23;99077.00;;;8.02;100.00
71735;BME280;59577;52.122;5.406;2024-02-23T11:47:51;99085.69;;;8.54;100.00
71735;BME280;59577;52.122;5.406;2024-02-23T11:50:18;99083.84;;;8.73;100.00
71735;BME280;59577;52.122;5.406;2024-02-23T11:52:47;99100.63;;;8.37;100.00
71735;BME280;59577;52.122;5.406;2024-02-23T11:55:20;99097.88;;;8.23;100.00
71735;BME280;59577;52.122;5.406;2024-02-23T11:57:49;99086.63;;;8.03;100.00
71735;BME280;59577;52.122;5.406;2024-02-23T12:00:27;99086.31;;;8.19;100.00
71735;BME280;59577;52.122;5.406;2024-02-23T12:02:54;99098.97;;;8.07;100.00
71735;BME280;59577;52.122;5.406;2024-02-23T12:05:21;99091.56;;;7.94;100.00
71735;BME280;59577;52.122;5.406;2024-02-23T12:07:48;99093.88;;;7.91;100.00
71735;BME280;59577;52.122;5.406;2024-02-23T12:10:15;99090.41;;;7.87;100.00
71735;BME280;59577;52.122;5.406;2024-02-23T12:12:42;99091.91;;;7.85;100.00
71735;BME280;59577;52.122;5.406;2024-02-23T12:15:08;99102.63;;;7.78;100.00
71735;BME280;59577;52.122;5.406;2024-02-23T12:17:36;99092.63;;;7.75;100.00
71735;BME280;59577;52.122;5.406;2024-02-23T12:20:04;99108.03;;;7.78;100.00
71735;BME280;59577;52.122;5.406;2024-02-23T12:22:34;99096.50;;;7.77;100.00
71735;BME280;59577;52.122;5.406;2024-02-23T12:25:00;99089.56;;;7.80;100.00
71735;BME280;59577;52.122;5.406;2024-02-23T12:27:26;99094.59;;;7.85;100.00
71735;BME280;59577;52.122;5.406;2024-02-23T12:29:55;99082.03;;;8.10;100.00
71735;BME280;59577;52.122;5.406;2024-02-23T12:32:22;99094.44;;;8.26;100.00
71735;BME280;59577;52.122;5.406;2024-02-23T12:34:49;99095.94;;;8.23;100.00
71735;BME280;59577;52.122;5.406;2024-02-23T12:37:16;99092.88;;;8.21;100.00
71735;BME280;59577;52.122;5.406;2024-02-23T12:39:46;99110.59;;;8.26;100.00
71735;BME280;59577;52.122;5.406;2024-02-23T12:42:13;99107.09;;;8.18;100.00
71735;BME280;59577;52.122;5.406;2024-02-23T12:44:39;99117.47;;;8.16;100.00
71735;BME280;59577;52.122;5.406;2024-02-23T12:47:06;99120.28;;;8.38;100.00
71735;BME280;59577;52.122;5.406;2024-02-23T12:49:32;99118.72;;;8.37;100.00
71735;BME280;59577;52.122;5.406;2024-02-23T12:51:59;99117.97;;;8.33;100.00
71735;BME280;59577;52.122;5.406;2024-02-23T12:54:26;99117.97;;;8.36;100.00
71735;BME280;59577;52.122;5.406;2024-02-23T12:56:52;99117.22;;;8.36;100.00
71735;BME280;59577;52.122;5.406;2024-02-23T12:59:18;99105.97;;;8.23;100.00
71735;BME280;59577;52.122;5.406;2024-02-23T13:01:45;99124.09;;;8.29;100.00